Time;durP1;ratioP1;P1;durP2;ratioP2;P2;SDS_P1;SDS_P2;PMS_P1;PMS_P2;Temp;Humidity;BMP_temperature;BMP_pressure;BME280_temperature;BME280_humidity;BME280_pressure;Samples;Min_cycle;Max_cycle;Signal;HPM_P1;HPM_P2
2022/07/27 00:01:33;;;;;;;2.73;1.50;;;23.50;53.00;;;;;;7376845;19;20465;-48
2022/07/27 00:04:03;;;;;;;3.57;1.90;;;23.40;53.30;;;;;;7378504;19;20388;-49
2022/07/27 00:06:33;;;;;;;2.10;1.60;;;23.60;53.10;;;;;;7381499;19;20381;-48
2022/07/27 00:09:05;;;;;;;2.20;2.00;;;23.70;53.20;;;;;;7380427;19;21243;-48
2022/07/27 00:11:34;;;;;;;2.40;1.70;;;23.80;53.00;;;;;;7382300;19;20408;-52
2022/07/27 00:14:04;;;;;;;4.80;1.90;;;23.80;53.00;;;;;;7381011;19;20380;-52
2022/07/27 00:16:33;;;;;;;4.33;2.20;;;23.70;52.90;;;;;;7380760;19;20949;-53
2022/07/27 00:19:03;;;;;;;5.30;1.93;;;23.60;53.30;;;;;;7378579;19;20369;-52
2022/07/27 00:21:33;;;;;;;2.60;2.00;;;23.60;53.40;;;;;;7378909;19;20368;-52
2022/07/27 00:24:05;;;;;;;2.17;1.97;;;23.60;53.50;;;;;;7381422;19;20380;-52
2022/07/27 00:26:34;;;;;;;3.23;2.03;;;23.50;53.70;;;;;;7381613;19;20376;-52
2022/07/27 00:29:04;;;;;;;5.67;3.40;;;23.30;54.00;;;;;;7382311;19;20421;-52
2022/07/27 00:31:36;;;;;;;4.60;2.00;;;22.90;55.10;;;;;;7383801;19;20372;-51
2022/07/27 00:34:05;;;;;;;3.60;2.40;;;22.70;55.70;;;;;;7391703;19;20376;-51
2022/07/27 00:36:35;;;;;;;4.43;2.27;;;22.30;56.90;;;;;;7386084;19;20410;-51
2022/07/27 00:39:07;;;;;;;3.60;2.47;;;22.20;57.20;;;;;;7383579;19;20815;-52
2022/07/27 00:41:36;;;;;;;3.00;2.10;;;22.30;57.00;;;;;;7384102;19;20468;-48
2022/07/27 00:44:06;;;;;;;2.10;1.83;;;22.10;57.40;;;;;;7385269;19;20364;-48
2022/07/27 00:46:38;;;;;;;3.03;2.47;;;22.50;56.80;;;;;;7386485;19;20407;-49
2022/07/27 00:49:07;;;;;;;4.73;2.43;;;22.70;56.10;;;;;;7380234;19;20380;-49
2022/07/27 00:51:37;;;;;;;2.33;2.03;;;23.00;55.60;;;;;;7383464;19;20469;-48
2022/07/27 00:54:11;;;;;;;4.77;2.73;;;23.10;55.20;;;;;;7386154;19;20395;-48
2022/07/27 00:56:41;;;;;;;3.40;2.07;;;23.10;55.30;;;;;;7380910;19;20480;-48
2022/07/27 00:59:13;;;;;;;2.87;2.17;;;23.10;55.20;;;;;;7382727;19;20372;-48
2022/07/27 01:01:43;;;;;;;6.30;2.50;;;23.20;55.20;;;;;;7378849;19;20455;-48
2022/07/27 01:04:13;;;;;;;3.13;2.37;;;23.20;54.90;;;;;;7385083;19;20372;-48
2022/07/27 01:06:42;;;;;;;2.80;2.60;;;23.30;54.80;;;;;;7384969;19;20374;-48
2022/07/27 01:11:57;;;;;;;5.13;2.80;;;23.50;54.30;;;;;;7389179;19;20376;-52
2022/07/27 01:14:26;;;;;;;2.93;2.10;;;23.70;54.20;;;;;;7383299;19;20372;-52
2022/07/27 01:16:56;;;;;;;3.87;2.40;;;23.70;54.00;;;;;;7381586;19;22269;-52
2022/07/27 01:19:25;;;;;;;5.97;3.10;;;23.70;53.90;;;;;;7387925;19;20485;-52
2022/07/27 01:21:58;;;;;;;3.40;2.20;;;23.70;53.90;;;;;;7384603;19;20457;-52
2022/07/27 01:24:27;;;;;;;2.80;2.57;;;23.70;54.00;;;;;;7382260;19;20388;-52
2022/07/27 01:26:57;;;;;;;2.53;2.33;;;23.50;54.10;;;;;;7384706;19;20399;-54
2022/07/27 01:29:26;;;;;;;3.10;2.47;;;23.40;54.40;;;;;;7385242;19;20376;-52
2022/07/27 01:31:56;;;;;;;2.90;2.70;;;23.30;54.70;;;;;;7385333;19;20723;-52
2022/07/27 01:34:25;;;;;;;3.20;2.90;;;23.20;55.00;;;;;;7382957;19;20413;-52
2022/07/27 01:36:57;;;;;;;2.80;2.30;;;23.10;55.20;;;;;;7380324;19;20909;-52
2022/07/27 01:39:27;;;;;;;2.30;2.10;;;23.00;55.30;;;;;;7382549;19;20946;-52
2022/07/27 01:41:59;;;;;;;2.73;2.53;;;23.00;55.30;;;;;;7377447;19;21033;-51
2022/07/27 01:44:29;;;;;;;2.33;2.10;;;23.00;55.40;;;;;;7385859;19;20391;-52
2022/07/27 01:46:59;;;;;;;2.47;2.27;;;23.00;55.50;;;;;;7380881;19;20372;-51
2022/07/27 01:49:29;;;;;;;4.13;2.80;;;23.10;55.60;;;;;;7386230;19;20387;-51
2022/07/27 01:52:01;;;;;;;2.67;2.47;;;23.10;55.50;;;;;;7383573;19;20376;-52
2022/07/27 01:54:31;;;;;;;5.30;2.30;;;23.00;55.50;;;;;;7384535;19;20647;-52
2022/07/27 01:57:00;;;;;;;2.47;2.20;;;23.00;56.30;;;;;;7382050;19;20447;-52
2022/07/27 01:59:30;;;;;;;5.47;2.53;;;22.90;55.90;;;;;;7385041;19;20973;-52
2022/07/27 02:01:59;;;;;;;3.90;2.80;;;22.90;56.10;;;;;;7379980;19;20396;-52
2022/07/27 02:04:29;;;;;;;3.10;2.53;;;22.80;56.10;;;;;;7380854;19;21043;-52
2022/07/27 02:07:03;;;;;;;3.50;2.70;;;22.70;56.60;;;;;;7381820;19;20373;-52
2022/07/27 02:09:32;;;;;;;3.47;3.07;;;22.60;56.70;;;;;;7380894;19;21265;-52
2022/07/27 02:14:44;;;;;;;2.97;2.67;;;22.60;56.80;;;;;;7385250;19;20376;-52
2022/07/27 02:17:13;;;;;;;3.40;2.43;;;22.50;57.10;;;;;;7379945;19;20397;-52
2022/07/27 02:19:43;;;;;;;5.10;2.17;;;22.40;57.40;;;;;;7382238;19;20423;-52
2022/07/27 02:22:15;;;;;;;4.47;2.83;;;22.50;57.40;;;;;;7377519;19;20411;-52
2022/07/27 02:24:45;;;;;;;2.97;2.20;;;22.60;57.20;;;;;;7384696;19;20408;-52
2022/07/27 02:27:14;;;;;;;2.67;2.47;;;22.50;57.30;;;;;;7381339;19;20396;-52
2022/07/27 02:29:44;;;;;;;5.50;2.37;;;22.40;57.40;;;;;;7383275;19;20380;-51
2022/07/27 02:32:13;;;;;;;4.23;3.07;;;22.40;57.70;;;;;;7375545;19;20368;-52
2022/07/27 02:34:43;;;;;;;2.67;2.43;;;22.40;57.60;;;;;;7377637;19;21461;-52
2022/07/27 02:37:15;;;;;;;2.87;2.67;;;22.40;57.70;;;;;;7376043;19;20405;-52
2022/07/27 02:39:45;;;;;;;2.87;2.40;;;22.30;57.90;;;;;;7379920;19;20400;-52
2022/07/27 02:42:14;;;;;;;2.60;2.20;;;22.30;58.00;;;;;;7377432;19;20930;-51
2022/07/27 02:44:44;;;;;;;3.23;2.60;;;22.30;58.10;;;;;;7383403;19;20474;-52
2022/07/27 02:47:13;;;;;;;3.40;2.37;;;22.40;57.80;;;;;;7379136;19;20847;-52
2022/07/27 02:49:43;;;;;;;4.23;3.30;;;22.50;57.60;;;;;;7379176;19;20380;-52
2022/07/27 02:52:15;;;;;;;4.70;2.73;;;22.60;57.50;;;;;;7380822;19;20372;-52
2022/07/27 02:54:45;;;;;;;2.43;2.17;;;22.60;57.70;;;;;;7377420;19;20364;-52
2022/07/27 02:57:14;;;;;;;4.07;2.50;;;22.50;57.80;;;;;;7374742;19;20794;-51
2022/07/27 02:59:46;;;;;;;4.00;2.40;;;22.50;57.90;;;;;;7385617;19;20433;-51
2022/07/27 03:02:15;;;;;;;3.00;2.70;;;22.50;57.70;;;;;;7380031;19;20510;-51
2022/07/27 03:04:45;;;;;;;3.20;2.50;;;22.30;58.30;;;;;;7381451;19;20396;-52
2022/07/27 03:07:17;;;;;;;3.20;2.40;;;22.40;58.30;;;;;;7378617;19;21132;-52
2022/07/27 03:09:49;;;;;;;3.07;2.27;;;22.50;58.10;;;;;;7378212;19;20375;-52
2022/07/27 03:12:18;;;;;;;3.40;3.10;;;22.60;57.80;;;;;;7381966;19;20424;-52
2022/07/27 03:14:48;;;;;;;3.00;2.57;;;22.70;57.80;;;;;;7375631;19;20364;-52
2022/07/27 03:17:18;;;;;;;2.93;2.63;;;22.70;57.50;;;;;;7372028;19;20903;-52
2022/07/27 03:19:48;;;;;;;3.17;2.80;;;22.80;57.50;;;;;;7381498;19;21077;-52
2022/07/27 03:22:20;;;;;;;3.13;2.83;;;22.70;57.60;;;;;;7379539;19;20810;-52
2022/07/27 03:24:50;;;;;;;4.70;2.50;;;22.60;57.90;;;;;;7382294;19;20366;-51
2022/07/27 03:27:19;;;;;;;4.73;2.53;;;22.70;57.80;;;;;;7379875;19;20395;-52
2022/07/27 03:29:49;;;;;;;2.80;2.60;;;22.80;57.70;;;;;;7382577;19;20399;-52
2022/07/27 03:32:18;;;;;;;2.80;2.60;;;22.70;57.50;;;;;;7373228;19;21030;-52
2022/07/27 03:34:48;;;;;;;2.93;2.50;;;22.70;57.70;;;;;;7381830;19;20383;-52
2022/07/27 03:37:20;;;;;;;5.37;3.10;;;22.60;58.00;;;;;;7375990;19;20443;-52
2022/07/27 03:39:50;;;;;;;3.63;2.83;;;22.60;58.00;;;;;;7379201;19;20969;-52
2022/07/27 03:42:19;;;;;;;2.80;2.50;;;22.60;58.10;;;;;;7377714;19;20375;-51
2022/07/27 03:44:50;;;;;;;3.93;3.03;;;22.50;58.40;;;;;;7381612;19;20376;-52
2022/07/27 03:47:20;;;;;;;4.90;2.90;;;22.20;58.90;;;;;;7374140;19;20380;-51
2022/07/27 03:49:51;;;;;;;3.50;3.13;;;22.00;59.40;;;;;;7377854;19;20380;-52
2022/07/27 03:52:23;;;;;;;3.80;2.83;;;22.00;59.70;;;;;;7376837;19;20388;-51
2022/07/27 03:54:53;;;;;;;4.23;3.00;;;22.00;59.70;;;;;;7380019;19;20384;-52
2022/07/27 03:57:22;;;;;;;4.37;3.10;;;22.10;59.60;;;;;;7379625;19;20392;-52
2022/07/27 03:59:53;;;;;;;3.93;2.67;;;22.00;59.90;;;;;;7375064;19;20458;-48
2022/07/27 04:02:22;;;;;;;7.30;3.20;;;21.70;60.90;;;;;;7378033;19;20376;-48
2022/07/27 04:04:51;;;;;;;2.97;2.73;;;21.60;61.60;;;;;;7375540;19;20753;-48
2022/07/27 04:07:23;;;;;;;4.37;3.23;;;21.70;61.80;;;;;;7370938;19;20368;-48
2022/07/27 04:09:55;;;;;;;3.97;2.67;;;21.70;61.60;;;;;;7374772;19;21210;-48
2022/07/27 04:12:25;;;;;;;2.73;2.43;;;21.70;61.70;;;;;;7380051;19;20380;-48
2022/07/27 04:14:54;;;;;;;3.47;2.50;;;21.80;61.80;;;;;;7376947;19;20375;-49
2022/07/27 04:17:24;;;;;;;3.17;2.80;;;21.60;62.40;;;;;;7377180;19;20438;-48
2022/07/27 04:19:53;;;;;;;3.33;3.03;;;21.60;62.60;;;;;;7373757;19;20385;-48
2022/07/27 04:22:26;;;;;;;4.20;3.23;;;21.60;62.90;;;;;;7379309;19;20380;-48
2022/07/27 04:24:55;;;;;;;4.30;3.00;;;21.60;63.20;;;;;;7379884;19;20372;-48
2022/07/27 04:27:25;;;;;;;3.63;3.20;;;21.80;62.60;;;;;;7375589;19;20847;-48
2022/07/27 04:29:54;;;;;;;5.27;3.10;;;22.00;61.90;;;;;;7370617;19;20375;-51
2022/07/27 04:32:24;;;;;;;4.50;3.67;;;22.10;61.50;;;;;;7373161;19;20421;-48
2022/07/27 04:34:53;;;;;;;4.37;3.63;;;22.20;60.90;;;;;;7377868;19;20382;-48
2022/07/27 04:37:25;;;;;;;4.77;3.30;;;22.30;60.70;;;;;;7373960;19;20380;-49
2022/07/27 04:39:59;;;;;;;5.20;3.77;;;22.30;60.80;;;;;;7374278;19;20384;-48
2022/07/27 04:42:28;;;;;;;4.13;3.80;;;22.30;60.80;;;;;;7376167;19;20376;-48
2022/07/27 04:44:58;;;;;;;4.90;3.20;;;22.40;60.70;;;;;;7378838;19;20372;-48
2022/07/27 04:47:30;;;;;;;9.00;6.73;;;22.20;61.30;;;;;;7363616;19;20427;-48
2022/07/27 04:50:00;;;;;;;7.70;4.10;;;22.30;61.50;;;;;;7377373;19;20371;-48
2022/07/27 04:52:32;;;;;;;3.67;3.03;;;22.30;61.20;;;;;;7366138;19;20372;-48
2022/07/27 04:55:01;;;;;;;3.90;3.60;;;22.30;61.40;;;;;;7370319;19;20376;-48
2022/07/27 04:57:31;;;;;;;3.97;3.40;;;22.30;61.80;;;;;;7360781;19;20387;-48
2022/07/27 05:00:02;;;;;;;14.33;4.37;;;22.30;61.60;;;;;;7380903;19;20440;-48
2022/07/27 05:02:33;;;;;;;3.90;3.60;;;22.40;61.20;;;;;;7380108;19;20384;-48
2022/07/27 05:05:02;;;;;;;4.50;4.10;;;22.40;60.80;;;;;;7381066;19;20372;-48
2022/07/27 05:07:34;;;;;;;4.10;3.70;;;22.50;61.90;;;;;;7378690;19;20372;-48
2022/07/27 05:10:04;;;;;;;6.17;4.53;;;22.40;61.40;;;;;;7380215;19;20787;-48
2022/07/27 05:12:33;;;;;;;15.50;9.90;;;22.30;61.80;;;;;;7375796;19;20398;-48
2022/07/27 05:15:03;;;;;;;8.20;6.17;;;22.30;61.80;;;;;;7380685;19;20368;-48
2022/07/27 05:17:32;;;;;;;12.07;9.37;;;22.40;61.60;;;;;;7382709;19;20404;-48
2022/07/27 05:20:02;;;;;;;10.07;8.17;;;22.60;61.20;;;;;;7388241;19;20435;-48
2022/07/27 05:22:34;;;;;;;10.73;7.43;;;22.70;60.60;;;;;;7384212;19;20376;-48
2022/07/27 05:25:03;;;;;;;7.90;6.50;;;22.80;60.20;;;;;;7386021;19;20364;-48
2022/07/27 05:27:33;;;;;;;4.83;4.00;;;22.90;59.90;;;;;;7376622;19;20981;-48
2022/07/27 05:30:02;;;;;;;6.67;4.10;;;22.80;59.90;;;;;;7384779;19;20368;-52
2022/07/27 05:32:32;;;;;;;5.17;3.80;;;22.60;60.80;;;;;;7381498;19;20388;-51
2022/07/27 05:35:04;;;;;;;5.10;4.60;;;22.60;61.20;;;;;;7380914;19;20419;-52
2022/07/27 05:37:36;;;;;;;14.63;5.20;;;22.50;61.20;;;;;;7383285;19;20395;-51
2022/07/27 05:40:09;;;;;;;5.17;3.73;;;22.60;61.40;;;;;;7382679;19;20375;-52
2022/07/27 05:42:38;;;;;;;6.07;3.70;;;22.60;61.50;;;;;;7385239;19;20379;-52
2022/07/27 05:45:11;;;;;;;10.60;4.57;;;22.70;60.90;;;;;;7384016;19;20467;-52
2022/07/27 05:47:41;;;;;;;4.23;3.60;;;22.80;60.60;;;;;;7380153;19;20417;-52
2022/07/27 05:50:11;;;;;;;7.27;3.40;;;22.50;61.20;;;;;;7371390;19;20372;-52
2022/07/27 05:52:43;;;;;;;5.27;3.50;;;22.50;61.60;;;;;;7384499;19;20388;-52
2022/07/27 05:55:13;;;;;;;3.97;3.63;;;22.60;61.70;;;;;;7381134;19;20416;-52
2022/07/27 05:57:43;;;;;;;4.90;4.03;;;22.70;61.40;;;;;;7381968;19;20386;-53
2022/07/27 06:00:14;;;;;;;4.30;3.90;;;22.50;61.70;;;;;;7375851;19;20439;-48
2022/07/27 06:02:43;;;;;;;7.07;4.30;;;22.50;62.00;;;;;;7384716;19;20412;-48
2022/07/27 06:05:15;;;;;;;12.20;4.37;;;22.50;62.30;;;;;;7386248;19;20376;-48
2022/07/27 06:08:05;;;;;;;5.53;4.33;;;22.60;61.60;;;;;;7386422;19;21205;-48
2022/07/27 06:10:36;;;;;;;17.57;8.10;;;22.60;61.60;;;;;;7383014;19;20404;-48
2022/07/27 06:13:09;;;;;;;4.60;3.20;;;22.50;62.80;;;;;;7382478;19;20371;-48
2022/07/27 06:15:39;;;;;;;4.77;3.80;;;22.40;62.70;;;;;;7387352;19;20733;-48
2022/07/27 06:18:16;;;;;;;3.43;3.13;;;22.60;62.80;;;;;;7371526;19;20384;-48
2022/07/27 06:20:46;;;;;;;7.10;3.90;;;22.70;62.20;;;;;;7380779;19;20464;-48
2022/07/27 06:23:20;;;;;;;6.00;3.73;;;22.70;61.80;;;;;;7385645;19;20917;-48
2022/07/27 06:25:50;;;;;;;4.47;3.70;;;22.80;61.30;;;;;;7379083;19;20500;-50
2022/07/27 06:28:19;;;;;;;5.37;3.70;;;22.70;61.60;;;;;;7381222;19;20422;-48
2022/07/27 06:30:49;;;;;;;6.43;3.90;;;22.80;61.30;;;;;;7382329;19;20936;-48
2022/07/27 06:33:26;;;;;;;3.80;3.17;;;22.40;62.10;;;;;;7387170;19;20378;-48
2022/07/27 06:35:56;;;;;;;3.67;3.37;;;22.50;62.80;;;;;;7385904;19;20368;-48
2022/07/27 06:38:29;;;;;;;3.53;3.23;;;22.80;62.20;;;;;;7382161;19;20389;-48
2022/07/27 06:40:59;;;;;;;3.87;3.30;;;22.80;61.40;;;;;;7382946;19;20372;-48
2022/07/27 06:43:30;;;;;;;4.80;3.53;;;22.90;61.60;;;;;;7386679;19;20380;-48
2022/07/27 06:46:02;;;;;;;4.97;3.67;;;22.90;61.80;;;;;;7383575;19;20368;-48
2022/07/27 06:48:31;;;;;;;5.13;3.27;;;23.00;61.00;;;;;;7382020;19;20718;-48
2022/07/27 06:51:01;;;;;;;7.67;3.70;;;23.30;60.60;;;;;;7385562;19;20372;-49
2022/07/27 06:53:36;;;;;;;4.37;3.97;;;23.20;60.40;;;;;;7381743;19;20980;-48
2022/07/27 06:56:07;;;;;;;4.23;3.83;;;23.30;60.00;;;;;;7383949;19;20953;-48
2022/07/27 06:58:37;;;;;;;7.73;3.77;;;23.20;60.00;;;;;;7376834;19;20369;-48
2022/07/27 07:01:06;;;;;;;5.60;3.50;;;23.20;60.40;;;;;;7377239;19;20440;-48
2022/07/27 07:03:36;;;;;;;3.70;3.40;;;23.40;59.60;;;;;;7378593;19;20789;-48
2022/07/27 07:06:06;;;;;;;4.30;3.90;;;23.60;59.20;;;;;;7382630;19;20750;-48
2022/07/27 07:08:38;;;;;;;6.77;3.40;;;23.60;59.40;;;;;;7384963;19;20380;-48
2022/07/27 07:11:09;;;;;;;3.50;3.20;;;23.80;59.50;;;;;;7384719;19;20377;-48
2022/07/27 07:13:41;;;;;;;4.17;3.77;;;24.00;58.80;;;;;;7381199;19;20453;-48
2022/07/27 07:16:10;;;;;;;3.93;3.60;;;24.10;58.10;;;;;;7379545;19;20933;-48
2022/07/27 07:18:40;;;;;;;5.00;4.53;;;24.10;58.20;;;;;;7375452;19;20952;-48
2022/07/27 07:21:11;;;;;;;4.53;3.40;;;24.30;58.00;;;;;;7374067;19;20399;-49
2022/07/27 07:23:44;;;;;;;3.93;3.53;;;24.40;57.10;;;;;;7380998;19;20394;-48
2022/07/27 07:26:14;;;;;;;4.30;3.90;;;24.20;57.30;;;;;;7378518;19;20944;-48
2022/07/27 07:28:43;;;;;;;5.90;4.10;;;24.40;57.10;;;;;;7385303;19;20417;-49
2022/07/27 07:31:13;;;;;;;4.83;3.87;;;23.90;57.30;;;;;;7378230;19;20372;-48
2022/07/27 07:33:42;;;;;;;3.93;3.63;;;24.00;57.90;;;;;;7374757;19;20424;-48
2022/07/27 07:36:12;;;;;;;4.00;3.43;;;24.30;57.60;;;;;;7380001;19;20381;-48
2022/07/27 07:38:44;;;;;;;5.80;3.50;;;24.30;57.00;;;;;;7379295;19;20380;-48
2022/07/27 07:41:14;;;;;;;3.40;2.80;;;24.60;56.90;;;;;;7381468;19;20384;-53
2022/07/27 07:43:44;;;;;;;5.60;3.30;;;24.80;56.50;;;;;;7378797;19;21090;-54
2022/07/27 07:46:13;;;;;;;3.30;3.00;;;25.00;56.40;;;;;;7374041;19;20379;-53
2022/07/27 07:48:43;;;;;;;5.20;3.80;;;25.10;55.50;;;;;;7374506;19;20376;-53
2022/07/27 07:51:13;;;;;;;4.00;3.10;;;25.30;55.30;;;;;;7371960;19;20455;-54
2022/07/27 07:53:45;;;;;;;4.00;3.20;;;25.40;55.00;;;;;;7368697;19;20368;-53
2022/07/27 07:56:15;;;;;;;3.90;3.23;;;25.50;54.80;;;;;;7373982;19;23458;-54
2022/07/27 07:58:45;;;;;;;3.50;3.20;;;25.30;54.70;;;;;;7377184;19;20464;-53
2022/07/27 08:01:14;;;;;;;4.43;3.30;;;25.00;55.40;;;;;;7377798;19;20439;-54
2022/07/27 08:03:44;;;;;;;3.47;3.17;;;25.20;55.30;;;;;;7380793;19;21219;-52
2022/07/27 08:06:16;;;;;;;6.70;3.40;;;25.40;54.50;;;;;;7379072;19;20380;-52
2022/07/27 08:08:48;;;;;;;4.10;3.70;;;25.30;54.50;;;;;;7376979;19;20384;-51
2022/07/27 08:11:18;;;;;;;3.63;3.27;;;25.10;55.10;;;;;;7378718;19;20393;-51
2022/07/27 08:13:47;;;;;;;5.43;3.73;;;25.30;55.40;;;;;;7370635;19;20407;-50
2022/07/27 08:16:17;;;;;;;4.93;3.10;;;25.40;54.80;;;;;;7378268;19;20383;-52
2022/07/27 08:18:47;;;;;;;5.43;4.07;;;25.60;54.50;;;;;;7380868;19;20379;-51
2022/07/27 08:21:16;;;;;;;3.53;3.23;;;25.70;54.70;;;;;;7381937;19;20376;-51
2022/07/27 08:23:48;;;;;;;5.90;3.67;;;25.80;54.10;;;;;;7380909;19;20376;-53
2022/07/27 08:26:18;;;;;;;4.10;3.70;;;25.70;54.20;;;;;;7379906;19;20384;-53
2022/07/27 08:28:48;;;;;;;3.40;3.10;;;25.90;53.90;;;;;;7383143;19;20834;-52
2022/07/27 08:31:17;;;;;;;4.60;3.77;;;26.20;53.40;;;;;;7382401;19;20402;-53
2022/07/27 08:33:47;;;;;;;3.93;3.53;;;26.30;53.00;;;;;;7384830;19;20785;-52
2022/07/27 08:36:17;;;;;;;3.87;3.57;;;26.20;53.40;;;;;;7380856;19;20380;-52
2022/07/27 08:38:49;;;;;;;5.70;3.57;;;26.50;52.60;;;;;;7382049;19;20731;-52
2022/07/27 08:41:23;;;;;;;3.37;3.07;;;26.40;52.30;;;;;;7381110;19;20388;-51
2022/07/27 08:43:56;;;;;;;5.20;3.80;;;26.20;52.60;;;;;;7380809;19;20404;-52
2022/07/27 08:46:28;;;;;;;3.43;3.07;;;26.40;52.20;;;;;;7381688;19;20377;-52
2022/07/27 08:49:02;;;;;;;3.40;3.10;;;26.70;52.30;;;;;;7382946;19;20363;-52
2022/07/27 08:51:32;;;;;;;4.50;4.10;;;27.00;51.40;;;;;;7391678;19;20387;-52
2022/07/27 08:54:05;;;;;;;4.80;3.17;;;27.00;51.40;;;;;;7389663;19;20380;-52
2022/07/27 08:56:36;;;;;;;6.97;3.30;;;27.20;50.80;;;;;;7390540;19;20379;-53
2022/07/27 08:59:06;;;;;;;3.70;3.17;;;27.30;50.70;;;;;;7386217;19;20982;-53
2022/07/27 09:01:39;;;;;;;4.90;4.40;;;27.50;49.90;;;;;;7385214;19;20428;-52
2022/07/27 09:04:11;;;;;;;4.70;4.07;;;27.70;50.00;;;;;;7388555;19;20376;-52
2022/07/27 09:06:49;;;;;;;4.63;3.20;;;27.80;49.20;;;;;;7389310;19;20384;-53
2022/07/27 09:09:23;;;;;;;5.73;4.67;;;28.00;49.20;;;;;;7391432;19;20372;-54
2022/07/27 09:12:08;;;;;;;3.30;3.00;;;28.20;48.80;;;;;;7388024;19;20377;-52
2022/07/27 09:14:39;;;;;;;3.77;2.80;;;28.50;48.20;;;;;;7386907;19;20538;-52
2022/07/27 09:17:23;;;;;;;3.00;2.80;;;28.70;47.50;;;;;;7389664;19;20364;-52
2022/07/27 09:19:57;;;;;;;3.40;2.70;;;28.80;47.00;;;;;;7391516;19;20395;-52
2022/07/27 09:22:41;;;;;;;3.57;3.10;;;28.80;47.40;;;;;;7384879;19;20372;-52
2022/07/27 09:25:15;;;;;;;3.33;3.03;;;29.20;46.90;;;;;;7387132;19;20783;-52
2022/07/27 09:27:47;;;;;;;6.10;2.60;;;29.00;46.80;;;;;;7389239;19;20377;-52
2022/07/27 09:30:19;;;;;;;7.80;3.57;;;29.00;47.10;;;;;;7389190;19;20376;-52
2022/07/27 09:32:57;;;;;;;3.60;3.40;;;29.00;47.10;;;;;;7387383;19;20721;-52
2022/07/27 09:35:30;;;;;;;5.80;3.63;;;29.30;46.80;;;;;;7385670;19;20401;-52
2022/07/27 09:38:19;;;;;;;3.43;3.13;;;29.70;45.80;;;;;;7389971;19;20399;-52
2022/07/27 09:41:00;;;;;;;5.60;3.53;;;29.80;45.50;;;;;;7386980;19;20369;-52
2022/07/27 09:43:30;;;;;;;4.20;3.67;;;29.80;45.30;;;;;;7386849;19;20396;-53
2022/07/27 09:46:07;;;;;;;4.17;3.10;;;29.50;45.80;;;;;;7386348;19;20373;-52
2022/07/27 09:48:37;;;;;;;3.43;3.13;;;29.80;45.70;;;;;;7389240;19;20405;-53
2022/07/27 09:51:08;;;;;;;6.07;3.40;;;29.80;45.40;;;;;;7387475;19;20368;-48
2022/07/27 09:53:38;;;;;;;3.50;2.80;;;30.00;45.00;;;;;;7390086;19;20380;-48
2022/07/27 09:56:14;;;;;;;4.90;3.37;;;30.10;44.70;;;;;;7385453;19;20384;-48
2022/07/27 09:58:47;;;;;;;3.63;3.30;;;30.00;44.30;;;;;;7387618;19;20486;-48
2022/07/27 10:01:20;;;;;;;3.30;2.87;;;30.00;44.80;;;;;;7381943;19;20456;-48
2022/07/27 10:03:57;;;;;;;5.07;2.93;;;30.50;44.30;;;;;;7387791;19;20963;-48
2022/07/27 10:06:27;;;;;;;3.37;3.07;;;30.70;44.00;;;;;;7389816;19;20708;-48
2022/07/27 10:08:59;;;;;;;4.37;2.60;;;31.50;42.50;;;;;;7387745;19;20391;-48
2022/07/27 10:11:31;;;;;;;3.93;2.80;;;31.90;42.00;;;;;;7387597;19;20376;-48
2022/07/27 10:14:05;;;;;;;3.70;2.93;;;32.60;40.20;;;;;;7388044;19;20404;-48
2022/07/27 10:16:38;;;;;;;3.20;2.77;;;32.90;39.50;;;;;;7387231;19;20380;-48
2022/07/27 10:19:14;;;;;;;3.37;2.70;;;33.20;39.60;;;;;;7387268;19;20384;-48
2022/07/27 10:21:48;;;;;;;3.70;2.80;;;34.50;38.10;;;;;;7386283;19;20372;-48
2022/07/27 10:24:30;;;;;;;3.77;2.37;;;35.50;36.50;;;;;;7388013;19;20913;-48
2022/07/27 10:27:20;;;;;;;3.50;2.10;;;36.70;35.00;;;;;;7382211;19;20399;-49
2022/07/27 10:29:55;;;;;;;4.20;2.40;;;38.20;32.90;;;;;;7387882;19;20758;-49
2022/07/27 10:32:27;;;;;;;4.53;2.27;;;39.10;31.50;;;;;;7386902;19;20376;-49
2022/07/27 10:34:57;;;;;;;3.03;2.10;;;38.70;31.70;;;;;;7382091;19;20371;-49
2022/07/27 10:37:28;;;;;;;2.83;2.00;;;39.00;30.40;;;;;;7388467;19;20402;-48
2022/07/27 10:42:44;;;;;;;2.70;2.50;;;35.00;34.80;;;;;;7387107;19;20380;-48
2022/07/27 10:45:17;;;;;;;5.57;2.93;;;33.90;37.20;;;;;;7383507;19;20733;-48
2022/07/27 10:47:49;;;;;;;3.20;2.90;;;33.40;37.40;;;;;;7380517;19;20376;-48
2022/07/27 10:50:25;;;;;;;3.33;2.93;;;32.60;38.80;;;;;;7385109;19;20384;-54
2022/07/27 10:52:56;;;;;;;5.63;2.97;;;32.00;40.10;;;;;;7388322;19;20426;-53
2022/07/27 10:55:58;;;;;;;2.57;2.37;;;32.30;39.60;;;;;;7384817;19;20380;-54
2022/07/27 10:58:49;;;;;;;2.50;2.20;;;33.60;38.60;;;;;;7384915;19;20412;-55
2022/07/27 11:01:23;;;;;;;4.43;2.10;;;35.10;35.40;;;;;;7377553;19;20487;-54
2022/07/27 11:03:55;;;;;;;3.17;2.07;;;35.60;34.20;;;;;;7386651;19;20368;-54
2022/07/27 11:06:29;;;;;;;2.93;2.13;;;35.70;33.70;;;;;;7386025;19;20503;-54
2022/07/27 11:09:00;;;;;;;3.10;2.23;;;35.90;33.30;;;;;;7387377;19;20905;-54
2022/07/27 11:11:33;;;;;;;2.33;2.13;;;36.50;32.80;;;;;;7383270;19;21162;-54
2022/07/27 11:14:05;;;;;;;2.50;2.13;;;36.90;31.50;;;;;;7386644;19;20402;-54
2022/07/27 11:16:39;;;;;;;4.03;2.40;;;38.10;30.90;;;;;;7385854;19;20421;-54
2022/07/27 11:19:09;;;;;;;3.10;2.47;;;38.80;29.80;;;;;;7381463;19;20373;-54
2022/07/27 11:21:41;;;;;;;2.17;1.80;;;38.80;29.50;;;;;;7383390;19;20824;-54
2022/07/27 11:24:15;;;;;;;3.40;2.07;;;37.80;30.10;;;;;;7383541;19;20387;-54
2022/07/27 11:26:46;;;;;;;2.80;2.43;;;36.70;31.50;;;;;;7382817;19;20980;-54
2022/07/27 11:29:22;;;;;;;3.10;2.90;;;35.40;33.00;;;;;;7384266;19;20405;-54
2022/07/27 11:31:54;;;;;;;2.47;2.27;;;34.10;34.80;;;;;;7381883;19;20375;-53
2022/07/27 11:34:28;;;;;;;4.00;2.57;;;33.20;36.10;;;;;;7384812;19;20971;-49
2022/07/27 11:37:01;;;;;;;3.70;3.40;;;32.50;37.20;;;;;;7381796;19;20419;-49
2022/07/27 11:39:33;;;;;;;3.70;3.40;;;31.90;37.60;;;;;;7386019;19;20999;-49
2022/07/27 11:42:04;;;;;;;3.07;2.73;;;32.10;37.60;;;;;;7384479;19;20398;-49
2022/07/27 11:44:41;;;;;;;5.43;2.43;;;32.30;37.90;;;;;;7386618;19;20384;-49
2022/07/27 11:47:17;;;;;;;3.13;2.00;;;32.70;35.80;;;;;;7381854;19;20803;-49
2022/07/27 11:49:51;;;;;;;2.73;1.90;;;33.00;36.40;;;;;;7381801;19;20785;-49
2022/07/27 11:52:22;;;;;;;4.40;2.00;;;34.30;34.10;;;;;;7383327;19;20364;-49
2022/07/27 11:54:53;;;;;;;3.53;1.80;;;35.80;31.80;;;;;;7379515;19;20394;-50
2022/07/27 11:57:32;;;;;;;4.00;2.03;;;37.50;29.70;;;;;;7380363;19;20398;-49
2022/07/27 12:00:11;;;;;;;1.90;1.80;;;38.10;28.60;;;;;;7377614;19;20463;-55
2022/07/27 12:02:50;;;;;;;4.43;1.80;;;38.70;28.20;;;;;;7385318;19;20376;-54
2022/07/27 12:05:19;;;;;;;3.87;1.90;;;39.10;28.00;;;;;;7382393;19;20403;-54
2022/07/27 12:07:51;;;;;;;2.77;2.20;;;39.00;28.10;;;;;;7386270;19;20384;-54
2022/07/27 12:10:21;;;;;;;2.40;1.60;;;37.80;29.10;;;;;;7381711;19;20431;-54
2022/07/27 12:12:53;;;;;;;4.77;2.00;;;36.20;30.70;;;;;;7385893;19;20963;-54
2022/07/27 12:15:27;;;;;;;2.80;1.83;;;35.00;32.50;;;;;;7382308;19;20491;-54
2022/07/27 12:17:58;;;;;;;5.47;1.57;;;34.20;34.30;;;;;;7383798;19;20421;-54
2022/07/27 12:20:36;;;;;;;3.10;1.80;;;33.60;34.50;;;;;;7381158;19;20395;-54
2022/07/27 12:23:07;;;;;;;3.10;2.07;;;33.60;34.60;;;;;;7380878;19;20386;-55
2022/07/27 12:25:40;;;;;;;4.07;1.97;;;33.60;35.00;;;;;;7386756;19;20429;-54
2022/07/27 12:28:16;;;;;;;4.70;1.80;;;34.10;34.10;;;;;;7393854;19;20376;-54
2022/07/27 12:30:50;;;;;;;1.30;1.20;;;34.40;33.50;;;;;;7388508;19;20784;-50
2022/07/27 12:33:31;;;;;;;1.53;1.43;;;35.00;32.50;;;;;;7390871;19;21005;-49
2022/07/27 12:36:02;;;;;;;1.90;1.80;;;36.30;31.00;;;;;;7388094;19;20380;-49
2022/07/27 12:38:39;;;;;;;2.70;2.00;;;36.30;30.90;;;;;;7390315;19;20391;-50
2022/07/27 12:41:09;;;;;;;4.47;1.90;;;35.70;31.40;;;;;;7391952;19;20500;-49
2022/07/27 12:43:41;;;;;;;2.47;1.77;;;34.70;32.50;;;;;;7390246;19;21003;-49
2022/07/27 12:46:16;;;;;;;4.63;1.57;;;34.30;33.30;;;;;;7387587;19;20981;-50
2022/07/27 12:48:46;;;;;;;2.10;1.90;;;34.00;33.30;;;;;;7392452;19;20463;-49
2022/07/27 12:51:15;;;;;;;1.70;1.60;;;33.40;33.10;;;;;;7388770;19;20417;-49
2022/07/27 12:53:45;;;;;;;2.50;1.83;;;33.90;32.60;;;;;;7390845;19;20416;-49
2022/07/27 12:56:15;;;;;;;2.90;1.53;;;34.20;32.30;;;;;;7390690;19;20413;-49
2022/07/27 12:59:00;;;;;;;2.80;1.60;;;33.90;32.50;;;;;;7391818;19;20378;-49
2022/07/27 13:01:32;;;;;;;2.03;1.80;;;33.10;34.10;;;;;;7387389;19;20890;-53
2022/07/27 13:04:01;;;;;;;1.97;1.50;;;32.60;34.80;;;;;;7391363;19;20372;-54
2022/07/27 13:06:32;;;;;;;1.80;1.40;;;32.20;35.60;;;;;;7390853;19;20426;-55
2022/07/27 13:09:02;;;;;;;2.60;1.60;;;32.10;35.90;;;;;;7388456;19;20420;-54
2022/07/27 13:11:31;;;;;;;2.07;1.63;;;33.10;35.20;;;;;;7388751;19;20956;-55
2022/07/27 13:14:01;;;;;;;1.97;1.77;;;34.60;32.50;;;;;;7389508;19;20372;-55
2022/07/27 13:16:35;;;;;;;2.97;1.60;;;35.20;31.70;;;;;;7388564;19;20376;-55